Time;durP1;ratioP1;P1;durP2;ratioP2;P2;SDS_P1;SDS_P2;PMS_P1;PMS_P2;Temp;Humidity;BMP_temperature;BMP_pressure;BME280_temperature;BME280_humidity;BME280_pressure;Samples;Min_cycle;Max_cycle;Signal;HPM_P1;HPM_P2
2023/12/01 06:02:11;;;;;;;16.02;12.23;;;3.50;87.30;;;;;;4190395;23;20061;-81
2023/12/01 06:04:13;;;;;;;17.77;13.68;;;3.50;87.40;;;;;;4132987;28;20125;-80
2023/12/01 06:06:15;;;;;;;19.83;14.93;;;3.50;87.20;;;;;;4133469;28;20077;-81
2023/12/01 06:08:17;;;;;;;21.42;16.25;;;3.50;87.30;;;;;;4132892;28;20050;-81
2023/12/01 06:10:19;;;;;;;19.17;15.07;;;3.50;87.30;;;;;;4133499;28;20488;-83
2023/12/01 06:12:20;;;;;;;19.67;15.07;;;3.50;87.20;;;;;;4133421;28;20051;-82
2023/12/01 06:14:22;;;;;;;18.80;14.60;;;3.50;87.30;;;;;;4132937;28;20047;-82
2023/12/01 06:16:24;;;;;;;19.63;14.77;;;3.50;87.20;;;;;;4134699;28;20110;-82
2023/12/01 06:18:29;;;;;;;19.67;14.80;;;3.40;87.20;;;;;;4134053;28;20096;-81
2023/12/01 06:20:30;;;;;;;25.23;17.27;;;3.50;87.20;;;;;;4133624;28;20101;-82
2023/12/01 06:22:32;;;;;;;21.90;15.50;;;3.40;87.20;;;;;;4134947;28;20447;-83
2023/12/01 06:24:34;;;;;;;21.10;14.88;;;3.40;87.40;;;;;;4135607;28;20479;-83
2023/12/01 06:26:38;;;;;;;22.55;15.85;;;3.40;87.20;;;;;;4133798;28;20046;-83
2023/12/01 06:28:41;;;;;;;23.67;17.38;;;3.40;87.30;;;;;;4132969;28;20058;-81
2023/12/01 06:30:43;;;;;;;22.70;15.77;;;3.40;87.30;;;;;;4133703;28;20443;-82
2023/12/01 06:32:46;;;;;;;20.38;15.25;;;3.40;87.50;;;;;;4133903;28;20069;-82
2023/12/01 06:34:50;;;;;;;20.25;14.38;;;3.40;87.60;;;;;;4132644;28;20093;-84
2023/12/01 06:36:50;;;;;;;22.65;15.80;;;3.40;87.50;;;;;;4133247;28;20101;-80
2023/12/01 06:38:52;;;;;;;24.83;17.20;;;3.40;87.40;;;;;;4133221;28;20050;-84
2023/12/01 06:40:54;;;;;;;24.83;17.38;;;3.40;87.50;;;;;;4132887;28;20183;-83
2023/12/01 06:42:56;;;;;;;22.13;16.42;;;3.50;87.60;;;;;;4132864;28;20050;-82
2023/12/01 06:44:58;;;;;;;22.02;16.15;;;3.40;87.50;;;;;;4132999;28;20062;-83
2023/12/01 06:46:59;;;;;;;23.58;16.92;;;3.40;87.70;;;;;;4136005;28;20088;-83
2023/12/01 06:49:01;;;;;;;25.02;17.23;;;3.50;87.50;;;;;;4136223;28;20550;-83
2023/12/01 06:51:06;;;;;;;23.38;17.10;;;3.40;87.30;;;;;;4135992;28;20051;-83
2023/12/01 06:53:08;;;;;;;21.02;15.65;;;3.40;87.60;;;;;;4135868;28;20046;-82
2023/12/01 06:55:10;;;;;;;22.60;15.52;;;3.40;87.50;;;;;;4135894;28;20141;-83
2023/12/01 06:57:12;;;;;;;22.67;16.05;;;3.40;87.60;;;;;;4135789;28;20050;-80
2023/12/01 06:59:14;;;;;;;23.35;16.65;;;3.40;87.70;;;;;;4135670;28;20112;-83
2023/12/01 07:01:19;;;;;;;24.08;16.88;;;3.40;87.70;;;;;;4136209;28;20453;-82
2023/12/01 07:03:20;;;;;;;25.63;18.08;;;3.40;87.70;;;;;;4136746;28;20066;-81
2023/12/01 07:05:22;;;;;;;23.60;16.85;;;3.40;87.60;;;;;;4136116;28;20057;-82
2023/12/01 07:07:24;;;;;;;22.70;16.00;;;3.40;87.80;;;;;;4137108;28;20054;-81
2023/12/01 07:09:26;;;;;;;24.15;16.70;;;3.50;87.60;;;;;;4136646;28;20050;-84
2023/12/01 07:11:27;;;;;;;24.83;17.08;;;3.50;87.80;;;;;;4136871;28;20137;-86
2023/12/01 07:13:29;;;;;;;28.75;18.42;;;3.50;87.70;;;;;;4136268;28;20077;-83
2023/12/01 07:15:31;;;;;;;24.42;16.92;;;3.40;87.80;;;;;;4136204;28;20049;-83
2023/12/01 07:17:33;;;;;;;27.70;17.27;;;3.50;87.80;;;;;;4136165;28;20117;-83
2023/12/01 07:19:36;;;;;;;25.60;17.48;;;3.50;87.60;;;;;;4136307;28;20108;-84
2023/12/01 07:21:39;;;;;;;24.02;16.23;;;3.50;87.60;;;;;;4137091;28;20112;-85
2023/12/01 07:23:44;;;;;;;25.10;16.80;;;3.50;88.20;;;;;;4136720;28;20054;-85
2023/12/01 07:25:47;;;;;;;25.80;17.55;;;3.50;87.50;;;;;;4136520;28;20468;-84
2023/12/01 07:27:50;;;;;;;25.27;16.75;;;3.50;87.30;;;;;;4136672;28;20126;-85
2023/12/01 07:29:52;;;;;;;26.92;18.63;;;3.50;87.40;;;;;;4136406;28;20096;-85
2023/12/01 07:31:54;;;;;;;24.83;16.50;;;3.50;87.40;;;;;;4135729;28;20050;-85
2023/12/01 07:33:56;;;;;;;27.20;18.33;;;3.60;87.40;;;;;;4135138;28;20050;-84
2023/12/01 07:35:58;;;;;;;27.30;18.10;;;3.60;87.30;;;;;;4136717;28;20054;-83
2023/12/01 07:38:00;;;;;;;26.55;17.33;;;3.60;87.30;;;;;;4135852;28;20407;-82
2023/12/01 07:40:06;;;;;;;23.90;15.93;;;3.50;87.30;;;;;;4136098;28;20510;-82
2023/12/01 07:42:08;;;;;;;24.48;17.58;;;3.60;87.40;;;;;;4136360;28;20060;-84
2023/12/01 07:44:09;;;;;;;27.80;17.75;;;3.60;87.20;;;;;;4135967;28;20046;-84
2023/12/01 07:46:11;;;;;;;23.08;15.95;;;3.60;87.20;;;;;;4136260;28;20455;-83
2023/12/01 07:48:12;;;;;;;24.65;16.65;;;3.60;87.10;;;;;;4135921;28;20046;-84
2023/12/01 07:50:14;;;;;;;25.38;17.50;;;3.60;87.20;;;;;;4135179;28;20054;-84
2023/12/01 07:52:17;;;;;;;21.35;15.60;;;3.60;87.00;;;;;;4136018;28;20047;-84
2023/12/01 07:54:19;;;;;;;22.10;15.73;;;3.60;87.10;;;;;;4136173;28;20043;-84
2023/12/01 07:56:22;;;;;;;21.35;14.80;;;3.60;87.10;;;;;;4135821;28;20050;-83
2023/12/01 07:58:24;;;;;;;20.75;14.93;;;3.60;87.10;;;;;;4134838;28;20117;-84
2023/12/01 08:00:27;;;;;;;22.23;14.93;;;3.60;86.90;;;;;;4135613;28;20050;-83
2023/12/01 08:02:29;;;;;;;22.70;16.20;;;3.60;87.00;;;;;;4135660;28;20046;-83
2023/12/01 08:04:31;;;;;;;20.40;13.85;;;3.60;87.10;;;;;;4134518;28;20060;-83
2023/12/01 08:06:33;;;;;;;19.27;13.85;;;3.60;87.10;;;;;;4136451;28;20455;-83
2023/12/01 08:08:35;;;;;;;20.38;15.05;;;3.60;87.00;;;;;;4136073;28;20545;-82
2023/12/01 08:10:37;;;;;;;19.92;14.48;;;3.70;86.90;;;;;;4135013;28;20053;-83
2023/12/01 08:12:41;;;;;;;17.10;12.93;;;3.70;86.80;;;;;;4135521;28;20112;-83
2023/12/01 08:14:42;;;;;;;17.50;13.50;;;3.70;87.10;;;;;;4136002;28;20164;-84
2023/12/01 08:16:44;;;;;;;19.25;14.32;;;3.70;87.00;;;;;;4135346;28;20105;-83
2023/12/01 08:18:46;;;;;;;18.80;14.45;;;3.70;86.90;;;;;;4135629;28;20055;-83
2023/12/01 08:20:49;;;;;;;19.33;13.50;;;3.70;86.80;;;;;;4135184;28;20050;-84
2023/12/01 08:22:51;;;;;;;17.65;13.23;;;3.70;86.70;;;;;;4134517;28;20046;-84
2023/12/01 08:24:53;;;;;;;24.80;16.90;;;3.70;86.80;;;;;;4135602;28;20100;-84
2023/12/01 08:26:55;;;;;;;26.65;17.65;;;3.70;86.70;;;;;;4118194;28;20117;-84
2023/12/01 08:28:58;;;;;;;25.23;16.48;;;3.70;86.70;;;;;;4134902;28;20054;-85
2023/12/01 08:31:00;;;;;;;19.80;14.48;;;3.70;86.60;;;;;;4134830;28;20054;-83
2023/12/01 08:33:01;;;;;;;18.33;13.52;;;3.80;86.60;;;;;;4134714;28;20046;-84
2023/12/01 08:35:04;;;;;;;19.13;13.43;;;3.80;86.50;;;;;;4134576;28;20093;-84
2023/12/01 08:37:04;;;;;;;17.48;12.88;;;3.80;86.50;;;;;;4134940;28;20058;-83
2023/12/01 08:39:09;;;;;;;16.67;12.05;;;3.80;86.50;;;;;;4135909;28;20089;-85
2023/12/01 08:41:11;;;;;;;18.27;13.50;;;3.80;86.50;;;;;;4141458;28;20046;-82
2023/12/01 08:43:13;;;;;;;18.55;13.38;;;3.70;86.60;;;;;;4141571;28;20074;-82
2023/12/01 08:45:17;;;;;;;20.20;14.43;;;3.60;86.70;;;;;;4141846;28;20078;-83
2023/12/01 08:47:20;;;;;;;18.48;13.43;;;3.70;86.90;;;;;;4138195;28;20054;-83
2023/12/01 08:49:22;;;;;;;17.15;12.73;;;3.70;86.80;;;;;;4140892;28;20093;-85
2023/12/01 08:51:24;;;;;;;19.02;12.88;;;3.70;86.60;;;;;;4136237;28;20054;-83
2023/12/01 08:53:26;;;;;;;19.25;13.80;;;3.80;86.50;;;;;;4135465;28;20061;-83
2023/12/01 08:55:28;;;;;;;18.17;12.35;;;3.80;86.40;;;;;;4134918;28;20117;-83
2023/12/01 08:57:30;;;;;;;17.38;11.95;;;3.80;86.40;;;;;;4134992;28;20113;-83
2023/12/01 08:59:31;;;;;;;15.32;11.07;;;3.80;86.40;;;;;;4134624;28;20050;-83
2023/12/01 09:01:34;;;;;;;16.08;12.25;;;3.80;86.30;;;;;;4133733;28;20065;-85
2023/12/01 09:03:36;;;;;;;18.48;12.32;;;3.80;86.20;;;;;;4134711;28;20050;-83
2023/12/01 09:05:37;;;;;;;16.25;12.48;;;3.80;86.10;;;;;;4135030;28;20050;-83
2023/12/01 09:07:38;;;;;;;16.90;13.05;;;3.90;86.00;;;;;;4133957;28;20109;-84
2023/12/01 09:09:40;;;;;;;16.50;12.68;;;3.90;86.00;;;;;;4132116;28;20046;-83
2023/12/01 09:11:42;;;;;;;18.75;13.45;;;3.90;85.90;;;;;;4132609;28;20492;-82
2023/12/01 09:13:44;;;;;;;16.70;12.27;;;3.90;86.00;;;;;;4133562;28;20552;-82
2023/12/01 09:15:46;;;;;;;17.02;13.15;;;3.90;85.90;;;;;;4134150;28;20097;-80
2023/12/01 09:17:49;;;;;;;16.10;12.20;;;3.90;86.00;;;;;;4132800;28;20385;-78
2023/12/01 09:19:50;;;;;;;16.13;11.05;;;3.90;86.00;;;;;;4133320;28;20054;-82
2023/12/01 09:21:52;;;;;;;18.90;13.10;;;3.90;85.80;;;;;;4133614;28;20510;-83
2023/12/01 09:23:54;;;;;;;18.45;12.75;;;4.00;85.80;;;;;;4134484;28;20050;-82
2023/12/01 09:25:56;;;;;;;18.02;12.15;;;4.00;85.70;;;;;;4133470;28;20053;-82
2023/12/01 09:27:59;;;;;;;14.07;11.07;;;4.00;85.70;;;;;;4133754;28;20060;-81
2023/12/01 09:29:59;;;;;;;14.95;11.32;;;4.00;85.50;;;;;;4133599;28;20085;-83
2023/12/01 09:32:01;;;;;;;14.93;11.15;;;4.00;86.20;;;;;;4133543;28;20054;-85
2023/12/01 09:34:05;;;;;;;14.85;10.98;;;4.00;85.40;;;;;;4131570;28;20056;-84
2023/12/01 09:36:08;;;;;;;16.38;12.18;;;4.10;85.40;;;;;;4131660;28;20148;-83
2023/12/01 09:38:11;;;;;;;16.33;12.55;;;4.00;85.20;;;;;;4131848;28;20411;-82
2023/12/01 09:40:13;;;;;;;16.38;12.80;;;4.10;85.60;;;;;;4131731;28;20050;-83
2023/12/01 09:42:17;;;;;;;16.00;12.35;;;4.10;85.30;;;;;;4131404;28;20081;-82
2023/12/01 09:44:19;;;;;;;16.42;12.32;;;4.00;85.20;;;;;;4115145;28;20062;-83
2023/12/01 09:46:22;;;;;;;17.40;13.45;;;4.10;85.30;;;;;;4131213;28;20054;-81
2023/12/01 09:48:24;;;;;;;15.88;12.18;;;4.10;85.60;;;;;;4131662;28;20502;-82
2023/12/01 09:50:28;;;;;;;20.48;13.35;;;4.00;85.20;;;;;;4131776;28;20081;-83
2023/12/01 09:52:30;;;;;;;17.65;13.50;;;4.00;85.40;;;;;;4111592;28;20058;-82
2023/12/01 09:54:32;;;;;;;14.50;10.80;;;4.00;85.60;;;;;;4131078;28;20052;-80
2023/12/01 09:56:34;;;;;;;16.92;12.30;;;4.00;86.20;;;;;;4131530;28;20462;-81
2023/12/01 09:58:36;;;;;;;18.70;13.40;;;4.10;86.00;;;;;;4130675;28;20104;-82
2023/12/01 10:00:38;;;;;;;16.40;11.90;;;4.10;85.90;;;;;;4131141;28;20050;-82
2023/12/01 10:02:40;;;;;;;15.70;11.63;;;4.10;85.60;;;;;;4131574;28;20120;-82
2023/12/01 10:04:43;;;;;;;18.90;11.82;;;4.00;85.80;;;;;;4130754;28;20058;-82
2023/12/01 10:06:46;;;;;;;15.13;10.70;;;4.10;85.70;;;;;;4131731;28;20093;-82
2023/12/01 10:08:50;;;;;;;16.13;11.60;;;4.10;85.70;;;;;;4131014;28;20051;-84
2023/12/01 10:10:51;;;;;;;16.67;12.30;;;4.10;85.40;;;;;;4130523;28;20054;-80
2023/12/01 10:12:55;;;;;;;16.92;12.73;;;4.10;85.20;;;;;;4130882;28;20050;-82
2023/12/01 10:14:57;;;;;;;18.15;13.02;;;4.10;85.10;;;;;;4130972;28;20054;-83
2023/12/01 10:17:03;;;;;;;17.85;12.63;;;4.20;85.20;;;;;;4130849;28;20050;-83
2023/12/01 10:19:06;;;;;;;16.88;12.07;;;4.10;85.10;;;;;;4131118;28;20157;-80
2023/12/01 10:21:09;;;;;;;16.15;12.52;;;4.10;85.50;;;;;;4130565;28;20407;-83
2023/12/01 10:23:20;;;;;;;20.13;13.93;;;4.10;85.30;;;;;;4130884;28;20058;-83
2023/12/01 10:25:22;;;;;;;20.40;14.05;;;4.00;85.30;;;;;;4131332;28;20079;-83
2023/12/01 10:27:24;;;;;;;19.20;13.48;;;4.00;85.50;;;;;;4130563;28;20085;-82
2023/12/01 10:29:29;;;;;;;25.35;14.05;;;4.00;86.10;;;;;;4130263;28;20065;-80
2023/12/01 10:31:31;;;;;;;24.08;13.90;;;4.00;86.00;;;;;;4130160;28;20089;-78
2023/12/01 10:33:35;;;;;;;19.70;13.60;;;4.10;85.70;;;;;;4129709;28;20085;-79
2023/12/01 10:35:37;;;;;;;17.02;12.30;;;4.10;85.50;;;;;;4130258;28;20415;-80
2023/12/01 10:37:39;;;;;;;17.75;12.07;;;4.10;85.80;;;;;;4129253;28;20113;-80
2023/12/01 10:39:44;;;;;;;18.60;13.48;;;4.10;85.60;;;;;;4130165;28;20482;-80
2023/12/01 10:41:47;;;;;;;22.95;14.07;;;4.10;85.20;;;;;;4129921;28;20737;-79
2023/12/01 10:43:51;;;;;;;24.17;13.02;;;4.10;85.20;;;;;;4129703;28;20104;-79
2023/12/01 10:45:53;;;;;;;22.98;12.18;;;4.20;85.20;;;;;;4129744;28;20050;-78
2023/12/01 10:47:59;;;;;;;19.77;13.38;;;4.20;85.30;;;;;;4131049;28;20054;-78
2023/12/01 10:50:03;;;;;;;20.60;13.73;;;4.20;85.10;;;;;;4129938;28;20122;-78
2023/12/01 10:52:12;;;;;;;20.58;14.32;;;4.10;85.00;;;;;;4128436;28;20094;-80
2023/12/01 10:54:16;;;;;;;18.92;14.00;;;4.10;85.10;;;;;;4130517;28;20050;-79
2023/12/01 10:56:21;;;;;;;21.77;14.38;;;4.10;85.60;;;;;;4130433;28;20128;-79
2023/12/01 10:58:26;;;;;;;18.33;13.70;;;4.10;85.40;;;;;;4130105;28;20050;-78
2023/12/01 11:00:30;;;;;;;21.20;14.77;;;4.10;85.20;;;;;;4130107;28;20046;-80
2023/12/01 11:02:37;;;;;;;21.58;14.27;;;4.10;85.00;;;;;;4131630;28;20441;-79
2023/12/01 11:04:44;;;;;;;18.15;13.18;;;4.10;85.00;;;;;;4130903;28;20085;-81
2023/12/01 11:07:01;;;;;;;20.33;13.25;;;4.10;84.90;;;;;;4132166;28;20137;-79
2023/12/01 11:09:12;;;;;;;18.55;13.02;;;4.00;85.10;;;;;;4131645;28;20389;-80
2023/12/01 11:11:24;;;;;;;21.92;13.98;;;4.10;85.20;;;;;;4129583;28;20058;-78
2023/12/01 11:13:53;;;;;;;28.98;15.18;;;4.10;85.20;;;;;;4131531;28;20451;-80
2023/12/01 11:15:57;;;;;;;18.20;12.90;;;4.00;85.30;;;;;;4132203;28;20491;-79
2023/12/01 11:17:59;;;;;;;19.08;12.95;;;4.00;85.40;;;;;;4132368;28;20550;-78
2023/12/01 11:20:02;;;;;;;17.30;12.02;;;4.00;85.20;;;;;;4132295;28;20050;-78
2023/12/01 11:22:24;;;;;;;20.52;12.73;;;4.00;85.20;;;;;;4132288;28;20506;-78
2023/12/01 11:24:31;;;;;;;20.35;14.27;;;4.00;85.30;;;;;;4132452;28;20404;-80
2023/12/01 11:26:34;;;;;;;20.20;14.57;;;4.00;85.60;;;;;;4132593;28;20058;-79
2023/12/01 11:28:43;;;;;;;21.65;15.15;;;3.90;85.50;;;;;;4132111;28;20093;-80
2023/12/01 11:31:00;;;;;;;20.35;14.70;;;3.90;85.70;;;;;;4132762;28;20207;-78
2023/12/01 11:33:02;;;;;;;21.55;15.25;;;3.90;85.90;;;;;;4134072;28;20422;-78
2023/12/01 11:35:06;;;;;;;21.45;14.82;;;3.90;85.90;;;;;;4135343;28;20061;-80
2023/12/01 11:37:08;;;;;;;28.38;18.85;;;3.80;86.00;;;;;;4135094;28;20047;-79
2023/12/01 11:39:20;;;;;;;23.45;15.82;;;3.80;86.30;;;;;;4138696;28;20183;-78
2023/12/01 11:41:23;;;;;;;25.15;16.08;;;3.80;86.40;;;;;;4140586;28;20105;-80
2023/12/01 11:43:30;;;;;;;28.25;15.32;;;3.80;86.40;;;;;;4139307;28;20054;-80
2023/12/01 11:45:39;;;;;;;24.45;16.30;;;3.80;86.20;;;;;;4138921;28;20093;-81
2023/12/01 11:47:41;;;;;;;24.13;15.25;;;3.70;86.50;;;;;;4138070;28;20089;-79
2023/12/01 11:49:45;;;;;;;23.65;14.10;;;3.80;86.70;;;;;;4134991;28;20054;-80
2023/12/01 11:51:49;;;;;;;22.63;14.82;;;3.70;86.90;;;;;;4134921;28;20056;-79
2023/12/01 11:53:56;;;;;;;25.58;16.77;;;3.70;86.90;;;;;;4136509;28;20046;-80
2023/12/01 11:55:58;;;;;;;23.40;13.90;;;3.70;87.00;;;;;;4135511;28;20525;-80
2023/12/01 11:58:01;;;;;;;22.77;14.90;;;3.70;87.20;;;;;;4135094;28;20137;-80
2023/12/01 12:00:09;;;;;;;26.38;16.58;;;3.80;86.90;;;;;;4135608;28;20053;-80
2023/12/01 12:02:10;;;;;;;23.85;16.15;;;3.70;87.20;;;;;;4135530;28;20140;-80
2023/12/01 12:04:16;;;;;;;25.23;17.10;;;3.70;87.40;;;;;;4136562;28;20068;-79
2023/12/01 12:06:19;;;;;;;22.80;15.35;;;3.50;87.70;;;;;;4140646;28;20137;-79
2023/12/01 12:08:37;;;;;;;25.00;16.05;;;3.60;88.10;;;;;;4292446;27;19925;-81
2023/12/01 12:10:39;;;;;;;50.47;28.05;;;3.70;87.70;;;;;;4272718;27;20051;-79
2023/12/01 12:12:41;;;;;;;27.33;17.30;;;3.70;87.40;;;;;;4274743;27;20098;-78
2023/12/01 12:14:42;;;;;;;23.85;14.85;;;3.70;87.10;;;;;;4275055;27;20046;-78
2023/12/01 12:16:45;;;;;;;23.52;15.82;;;3.80;87.10;;;;;;4273920;27;20046;-79
2023/12/01 12:18:48;;;;;;;21.55;14.65;;;3.80;86.80;;;;;;4265771;27;20457;-80
2023/12/01 12:20:50;;;;;;;23.67;16.08;;;3.80;86.80;;;;;;4263621;27;20047;-79
2023/12/01 12:22:52;;;;;;;22.00;13.77;;;3.70;86.90;;;;;;4263471;27;20099;-80
2023/12/01 12:24:55;;;;;;;27.17;14.85;;;3.80;87.10;;;;;;4263399;27;20047;-80
2023/12/01 12:26:57;;;;;;;25.83;14.85;;;3.70;86.90;;;;;;4263529;27;20047;-80
2023/12/01 12:29:01;;;;;;;24.67;16.20;;;3.80;86.80;;;;;;4263570;27;20126;-79
2023/12/01 12:31:03;;;;;;;23.08;15.07;;;3.70;86.70;;;;;;4263288;27;20129;-79
2023/12/01 12:33:06;;;;;;;22.15;14.70;;;3.80;87.10;;;;;;4263429;27;20046;-80
2023/12/01 12:35:08;;;;;;;25.83;16.27;;;3.70;87.10;;;;;;4263467;27;20049;-79
2023/12/01 12:37:12;;;;;;;23.55;15.25;;;3.50;87.70;;;;;;4263384;27;20054;-78
2023/12/01 12:39:16;;;;;;;22.02;15.00;;;3.60;87.70;;;;;;4263082;27;20113;-77
2023/12/01 12:41:23;;;;;;;23.30;15.15;;;3.70;87.50;;;;;;4263088;27;20055;-79
2023/12/01 12:43:25;;;;;;;22.20;15.70;;;3.70;87.20;;;;;;4263253;27;20050;-78
2023/12/01 12:45:29;;;;;;;24.08;16.77;;;3.70;87.10;;;;;;4263415;27;20050;-79
2023/12/01 12:47:30;;;;;;;24.88;17.02;;;3.80;86.90;;;;;;4263071;27;20051;-80
2023/12/01 12:49:33;;;;;;;28.70;16.45;;;3.70;86.90;;;;;;4263274;27;20050;-78
2023/12/01 12:51:35;;;;;;;23.48;15.40;;;3.80;86.90;;;;;;4263272;27;20047;-79
2023/12/01 12:53:37;;;;;;;25.25;15.65;;;3.80;86.70;;;;;;4263325;27;20544;-80
2023/12/01 12:55:38;;;;;;;21.98;13.98;;;3.80;86.90;;;;;;4262865;27;20043;-80
2023/12/01 12:57:41;;;;;;;21.27;14.75;;;3.80;86.70;;;;;;4262852;27;20126;-79
2023/12/01 12:59:43;;;;;;;23.02;15.15;;;3.80;86.50;;;;;;4262935;27;20051;-80
2023/12/01 13:01:45;;;;;;;21.60;15.05;;;3.80;86.40;;;;;;4262810;27;20043;-80
2023/12/01 13:03:48;;;;;;;21.45;14.43;;;3.90;86.40;;;;;;4262965;27;20388;-78
2023/12/01 13:05:50;;;;;;;23.30;15.07;;;3.90;86.30;;;;;;4264437;27;20050;-79
2023/12/01 13:07:51;;;;;;;21.65;15.30;;;3.80;86.30;;;;;;4262692;27;20492;-81
2023/12/01 13:09:53;;;;;;;25.02;16.33;;;3.90;86.30;;;;;;4262773;27;20046;-80
2023/12/01 13:11:55;;;;;;;21.08;15.02;;;3.90;86.10;;;;;;4262823;27;20495;-77
2023/12/01 13:13:59;;;;;;;20.83;14.75;;;3.90;85.90;;;;;;4258273;27;20039;-79
2023/12/01 13:16:02;;;;;;;18.80;14.18;;;3.80;86.10;;;;;;4246326;27;20048;-80
2023/12/01 13:18:04;;;;;;;20.52;13.63;;;3.90;86.20;;;;;;4245281;27;20108;-80
2023/12/01 13:20:08;;;;;;;21.05;14.75;;;3.90;86.10;;;;;;4233831;28;20553;-79
2023/12/01 13:22:10;;;;;;;19.30;14.23;;;3.90;86.10;;;;;;4240054;27;20155;-81
2023/12/01 13:24:12;;;;;;;17.45;13.15;;;3.90;85.80;;;;;;4251273;27;20043;-80
2023/12/01 13:26:15;;;;;;;23.17;15.60;;;3.90;85.70;;;;;;4249060;27;20043;-78
2023/12/01 13:28:16;;;;;;;23.27;14.15;;;3.90;86.00;;;;;;4250984;27;20055;-79
2023/12/01 13:30:20;;;;;;;22.10;15.15;;;3.90;85.90;;;;;;4240737;27;20046;-82
2023/12/01 13:32:22;;;;;;;17.70;13.02;;;3.80;85.70;;;;;;4236617;27;20047;-82
2023/12/01 13:34:24;;;;;;;16.63;12.45;;;3.90;85.90;;;;;;4242253;27;20045;-82
2023/12/01 13:36:25;;;;;;;17.70;13.05;;;3.90;85.90;;;;;;4232195;28;20123;-82
2023/12/01 13:38:27;;;;;;;18.48;13.02;;;3.70;85.90;;;;;;4232270;28;20089;-79
2023/12/01 13:40:29;;;;;;;19.13;12.85;;;3.80;86.30;;;;;;4231992;28;20043;-80
2023/12/01 13:42:32;;;;;;;15.40;11.60;;;3.80;86.30;;;;;;4231884;28;20067;-81
2023/12/01 13:44:34;;;;;;;17.42;12.95;;;3.80;86.20;;;;;;4234578;27;20047;-81
2023/12/01 13:46:37;;;;;;;16.10;11.63;;;3.70;86.40;;;;;;4248814;27;20400;-82
2023/12/01 13:48:39;;;;;;;18.38;12.98;;;3.80;86.60;;;;;;4235754;27;20485;-79
2023/12/01 13:50:41;;;;;;;18.60;13.02;;;3.80;86.50;;;;;;4231940;28;20081;-79
2023/12/01 13:52:42;;;;;;;18.30;12.93;;;3.80;86.20;;;;;;4231647;28;20059;-81
2023/12/01 13:54:45;;;;;;;17.35;12.85;;;3.90;86.20;;;;;;4234141;27;20043;-82
2023/12/01 13:56:46;;;;;;;17.33;12.25;;;3.90;86.00;;;;;;4231082;28;20093;-80
2023/12/01 13:58:48;;;;;;;17.92;12.70;;;3.90;85.90;;;;;;4231598;28;20059;-81
2023/12/01 14:00:50;;;;;;;18.55;12.35;;;3.90;85.80;;;;;;4231355;28;20496;-80
2023/12/01 14:02:54;;;;;;;19.27;13.50;;;3.80;85.90;;;;;;4231458;28;20060;-82
2023/12/01 14:04:56;;;;;;;20.02;14.18;;;3.80;86.10;;;;;;4244233;27;20187;-80
2023/12/01 14:06:57;;;;;;;20.55;14.57;;;3.80;85.90;;;;;;4230571;28;20644;-80
2023/12/01 14:08:59;;;;;;;18.65;13.43;;;3.80;85.80;;;;;;4254465;27;20058;-79
2023/12/01 14:11:02;;;;;;;20.92;14.68;;;3.80;85.80;;;;;;4253903;27;20484;-80
2023/12/01 14:13:06;;;;;;;19.13;13.43;;;3.80;86.10;;;;;;4252770;27;20053;-81
2023/12/01 14:15:08;;;;;;;21.25;14.68;;;3.80;85.90;;;;;;4244261;27;20043;-79
2023/12/01 14:17:10;;;;;;;21.60;15.18;;;3.80;85.80;;;;;;4233144;28;20112;-80
2023/12/01 14:19:13;;;;;;;21.67;15.25;;;3.80;85.90;;;;;;4231102;28;20138;-80
2023/12/01 14:21:16;;;;;;;21.98;14.82;;;3.70;86.00;;;;;;4231127;28;20051;-80
2023/12/01 14:23:17;;;;;;;20.35;14.27;;;3.60;86.60;;;;;;4235456;27;20043;-81
2023/12/01 14:25:19;;;;;;;21.10;15.38;;;3.70;86.60;;;;;;4235978;27;20577;-81
2023/12/01 14:27:21;;;;;;;27.42;17.65;;;3.70;86.60;;;;;;4230874;28;20047;-80
2023/12/01 14:29:24;;;;;;;23.35;16.75;;;3.70;86.30;;;;;;4244386;27;20373;-81
2023/12/01 14:31:26;;;;;;;21.23;14.68;;;3.70;86.30;;;;;;4247663;27;20047;-81
2023/12/01 14:33:28;;;;;;;25.05;16.90;;;3.70;86.30;;;;;;4248174;27;20138;-81
2023/12/01 14:35:31;;;;;;;24.92;16.80;;;3.60;86.10;;;;;;4240915;27;20047;-81
2023/12/01 14:37:33;;;;;;;23.27;15.93;;;3.60;87.00;;;;;;4231765;28;20058;-79
2023/12/01 14:39:36;;;;;;;21.63;16.30;;;3.60;86.80;;;;;;4245336;27;20100;-81
2023/12/01 14:41:38;;;;;;;25.55;18.08;;;3.70;86.70;;;;;;4234231;27;20112;-81
2023/12/01 14:43:39;;;;;;;23.98;16.55;;;3.60;86.50;;;;;;4243137;27;20047;-81
2023/12/01 14:45:42;;;;;;;26.65;18.40;;;3.60;86.70;;;;;;4237053;27;20541;-82
2023/12/01 14:47:44;;;;;;;25.10;15.98;;;3.30;87.20;;;;;;4231402;27;20174;-81
2023/12/01 14:49:46;;;;;;;23.50;16.45;;;3.40;88.00;;;;;;4230745;28;20051;-81
2023/12/01 14:51:49;;;;;;;21.90;14.73;;;3.40;88.50;;;;;;4231106;28;20059;-81
2023/12/01 14:53:53;;;;;;;20.95;15.25;;;3.50;87.70;;;;;;4230378;28;20480;-80
2023/12/01 14:55:56;;;;;;;23.05;15.98;;;3.60;87.30;;;;;;4230740;28;20047;-81
2023/12/01 14:57:59;;;;;;;24.10;16.67;;;3.50;87.10;;;;;;4246884;27;20049;-81
2023/12/01 15:00:01;;;;;;;31.13;21.42;;;3.60;87.20;;;;;;4248524;27;20387;-81
2023/12/01 15:02:02;;;;;;;24.80;16.70;;;3.60;87.20;;;;;;4231503;28;20414;-79
2023/12/01 15:04:04;;;;;;;36.95;22.63;;;3.60;87.10;;;;;;4230716;28;20056;-79
2023/12/01 15:06:06;;;;;;;28.13;18.40;;;3.60;87.00;;;;;;4231056;28;20055;-80
2023/12/01 15:08:09;;;;;;;24.65;16.90;;;3.60;86.90;;;;;;4245744;27;20051;-79
2023/12/01 15:10:11;;;;;;;24.88;17.23;;;3.60;86.90;;;;;;4247745;27;20457;-81
2023/12/01 15:12:13;;;;;;;23.85;15.82;;;3.60;87.00;;;;;;4247817;27;20086;-81
2023/12/01 15:14:15;;;;;;;24.70;17.05;;;3.60;87.00;;;;;;4240508;27;20047;-79
2023/12/01 15:16:18;;;;;;;26.10;16.77;;;3.60;87.00;;;;;;4230683;27;20059;-81
2023/12/01 15:18:20;;;;;;;24.48;17.02;;;3.60;86.90;;;;;;4230876;28;20055;-79
2023/12/01 15:20:22;;;;;;;23.15;16.25;;;3.60;87.00;;;;;;4230201;28;20066;-80
2023/12/01 15:22:24;;;;;;;24.88;17.27;;;3.70;87.00;;;;;;4229236;28;20063;-80
2023/12/01 15:24:27;;;;;;;25.05;16.58;;;3.60;86.80;;;;;;4230587;28;20054;-82
2023/12/01 15:26:28;;;;;;;25.77;16.52;;;3.60;86.60;;;;;;4232452;27;20096;-82
2023/12/01 15:28:31;;;;;;;23.08;16.48;;;3.60;86.80;;;;;;4248059;27;20047;-80
2023/12/01 15:30:33;;;;;;;28.13;18.10;;;3.60;86.80;;;;;;4248216;27;20059;-81
2023/12/01 15:32:35;;;;;;;27.13;17.88;;;3.50;86.90;;;;;;4247749;27;20051;-82
2023/12/01 15:34:37;;;;;;;26.65;17.98;;;3.50;87.20;;;;;;4247533;27;20495;-81
2023/12/01 15:36:39;;;;;;;24.02;17.35;;;3.60;87.20;;;;;;4245729;27;21536;-81
2023/12/01 15:38:41;;;;;;;23.48;16.63;;;3.60;87.10;;;;;;4247503;27;20549;-80
2023/12/01 15:40:44;;;;;;;24.15;16.83;;;3.50;87.20;;;;;;4245193;27;20108;-80
2023/12/01 15:42:46;;;;;;;23.95;16.67;;;3.60;87.10;;;;;;4232395;27;20043;-79
2023/12/01 15:44:50;;;;;;;27.02;18.40;;;3.60;87.00;;;;;;4229731;28;20547;-80
2023/12/01 15:46:52;;;;;;;25.17;17.42;;;3.50;86.90;;;;;;4230180;28;20134;-80
2023/12/01 15:48:54;;;;;;;27.23;17.92;;;3.50;87.10;;;;;;4230258;28;20462;-79
2023/12/01 15:50:56;;;;;;;26.05;16.83;;;3.50;87.20;;;;;;4230896;27;20048;-82
2023/12/01 15:52:59;;;;;;;23.50;16.00;;;3.50;87.40;;;;;;4242970;27;20043;-80
2023/12/01 15:55:01;;;;;;;26.08;17.40;;;3.50;87.30;;;;;;4237855;27;20047;-80
2023/12/01 15:57:04;;;;;;;22.77;16.90;;;3.50;87.10;;;;;;4243837;27;20111;-80
2023/12/01 15:59:06;;;;;;;24.40;16.83;;;3.50;87.30;;;;;;4238594;27;20071;-80
2023/12/01 16:01:09;;;;;;;24.17;16.67;;;3.40;87.30;;;;;;4230565;28;20043;-79
2023/12/01 16:03:10;;;;;;;24.40;17.05;;;3.50;87.50;;;;;;4233577;27;20059;-81
2023/12/01 16:05:13;;;;;;;26.02;17.08;;;3.50;87.30;;;;;;4232997;28;20043;-78
2023/12/01 16:07:15;;;;;;;23.63;16.70;;;3.40;87.60;;;;;;4235970;28;20063;-81
2023/12/01 16:09:17;;;;;;;24.75;16.73;;;3.40;87.70;;;;;;4230160;28;20196;-82
2023/12/01 16:11:19;;;;;;;21.40;15.57;;;3.50;87.60;;;;;;4230646;28;20065;-83
2023/12/01 16:13:22;;;;;;;22.73;16.25;;;3.40;87.60;;;;;;4241268;28;20095;-79
2023/12/01 16:15:24;;;;;;;22.67;15.93;;;3.40;87.80;;;;;;4236812;28;20051;-81
2023/12/01 16:17:27;;;;;;;24.02;16.65;;;3.40;87.70;;;;;;4232207;28;20056;-80
2023/12/01 16:19:28;;;;;;;25.33;17.50;;;3.40;87.70;;;;;;4229315;28;20048;-81
2023/12/01 16:21:30;;;;;;;25.73;18.10;;;3.40;87.70;;;;;;4230732;28;20048;-81
2023/12/01 16:23:32;;;;;;;26.38;17.92;;;3.50;87.60;;;;;;4228703;28;20052;-80
2023/12/01 16:25:34;;;;;;;22.67;15.38;;;3.50;87.60;;;;;;4188537;28;20057;-82
2023/12/01 16:27:36;;;;;;;25.40;16.60;;;3.50;87.60;;;;;;4178688;28;20059;-81
2023/12/01 16:29:39;;;;;;;22.85;16.10;;;3.50;87.40;;;;;;4179473;28;20045;-78
2023/12/01 16:31:41;;;;;;;22.10;15.60;;;3.50;87.20;;;;;;4178868;28;20048;-78